createdAt,value
2023-03-18T00:01:04.010Z,22.13
2023-03-18T00:03:31.516Z,22.11
2023-03-18T00:06:08.463Z,22.09
2023-03-18T00:08:34.900Z,22.08
2023-03-18T00:11:01.285Z,22.07
2023-03-18T00:13:27.907Z,22.06
2023-03-18T00:15:54.256Z,22.05
2023-03-18T00:18:20.579Z,22.04
2023-03-18T00:20:46.896Z,22.02
2023-03-18T00:23:13.222Z,22.00
2023-03-18T00:25:39.543Z,22.00
2023-03-18T00:28:06.433Z,21.97
2023-03-18T00:30:33.540Z,22.01
2023-03-18T00:33:00.298Z,21.98
2023-03-18T00:35:30.827Z,21.97
2023-03-18T00:37:58.375Z,21.95
2023-03-18T00:40:30.825Z,21.95
2023-03-18T00:43:08.057Z,21.94
2023-03-18T00:45:37.027Z,21.92
2023-03-18T00:48:03.750Z,21.92
2023-03-18T00:50:30.293Z,21.91
2023-03-18T00:52:56.752Z,21.89
2023-03-18T00:55:23.080Z,21.86
2023-03-18T00:57:49.413Z,21.86
2023-03-18T01:00:17.010Z,21.85
2023-03-18T01:02:44.134Z,21.84
2023-03-18T01:05:13.398Z,21.81
2023-03-18T01:07:39.719Z,21.81
2023-03-18T01:10:06.455Z,21.80
2023-03-18T01:12:33.227Z,21.79
2023-03-18T01:14:59.783Z,21.76
2023-03-18T01:17:26.105Z,21.76
2023-03-18T01:19:52.423Z,21.75
2023-03-18T01:22:19.460Z,21.74
2023-03-18T01:24:47.095Z,21.72
2023-03-18T01:27:13.922Z,21.72
2023-03-18T01:29:40.579Z,21.72
2023-03-18T01:32:06.939Z,21.72
2023-03-18T01:34:34.179Z,21.71
2023-03-18T01:37:01.506Z,21.70
2023-03-18T01:39:27.843Z,21.69
2023-03-18T01:41:54.156Z,21.69
2023-03-18T01:44:21.707Z,21.69
2023-03-18T01:46:48.552Z,21.68
2023-03-18T01:49:18.983Z,21.67
2023-03-18T01:51:46.657Z,21.65
2023-03-18T01:54:12.981Z,21.64
2023-03-18T01:56:39.508Z,21.61
2023-03-18T01:59:06.070Z,21.60
2023-03-18T02:01:51.465Z,21.60
2023-03-18T02:04:17.873Z,21.59
2023-03-18T02:06:44.219Z,21.58
2023-03-18T02:09:10.558Z,21.57
2023-03-18T02:11:39.090Z,21.57
2023-03-18T02:14:05.567Z,21.56
2023-03-18T02:16:34.304Z,21.55
2023-03-18T02:19:09.851Z,21.54
2023-03-18T02:21:49.798Z,21.52
2023-03-18T02:24:22.092Z,21.52
2023-03-18T02:27:12.188Z,21.51
2023-03-18T02:29:38.601Z,21.51
2023-03-18T02:32:05.975Z,21.50
2023-03-18T02:34:32.454Z,21.49
2023-03-18T02:36:58.825Z,21.50
2023-03-18T02:39:25.136Z,21.50
2023-03-18T02:41:51.573Z,21.48
2023-03-18T02:44:18.460Z,21.49
2023-03-18T02:46:52.191Z,21.47
2023-03-18T02:49:18.836Z,21.46
2023-03-18T02:51:45.222Z,21.44
2023-03-18T02:54:12.776Z,21.44
2023-03-18T02:56:39.456Z,21.42
2023-03-18T02:59:06.014Z,21.40
2023-03-18T03:01:32.463Z,21.40
2023-03-18T03:03:58.837Z,21.39
2023-03-18T03:06:25.810Z,21.37
2023-03-18T03:08:52.232Z,21.37
2023-03-18T03:11:19.038Z,21.37
2023-03-18T03:13:45.821Z,21.36
2023-03-18T03:16:15.660Z,21.35
2023-03-18T03:18:42.334Z,21.35
2023-03-18T03:21:09.133Z,21.34
2023-03-18T03:23:35.622Z,21.33
2023-03-18T03:26:02.555Z,21.32
2023-03-18T03:28:28.880Z,21.33
2023-03-18T03:30:55.745Z,21.34
2023-03-18T03:33:22.862Z,21.32
2023-03-18T03:35:49.242Z,21.31
2023-03-18T03:38:16.071Z,21.31
2023-03-18T03:40:42.456Z,21.32
2023-03-18T03:43:10.796Z,21.30
2023-03-18T03:45:37.681Z,21.30
2023-03-18T03:48:04.124Z,21.28
2023-03-18T03:50:30.771Z,21.27
2023-03-18T03:52:57.415Z,21.26
2023-03-18T03:55:23.756Z,21.25
2023-03-18T03:57:50.193Z,21.23
2023-03-18T04:00:18.530Z,21.22
2023-03-18T04:02:45.024Z,21.22
2023-03-18T04:05:12.491Z,21.22
2023-03-18T04:07:38.953Z,21.21
2023-03-18T04:10:05.560Z,21.21
2023-03-18T04:12:31.873Z,21.19
2023-03-18T04:14:58.174Z,21.18
2023-03-18T04:17:24.597Z,21.17
2023-03-18T04:19:50.927Z,21.18
2023-03-18T04:22:18.200Z,21.18
2023-03-18T04:24:44.882Z,21.16
2023-03-18T04:27:11.595Z,21.18
2023-03-18T04:29:37.982Z,21.17
2023-03-18T04:32:04.370Z,21.16
2023-03-18T04:34:30.765Z,21.15
2023-03-18T04:36:58.062Z,21.14
2023-03-18T04:39:24.363Z,21.14
2023-03-18T04:41:50.767Z,21.15
2023-03-18T04:44:17.382Z,21.14
2023-03-18T04:46:43.737Z,21.14
2023-03-18T04:49:10.503Z,21.14
2023-03-18T04:51:37.840Z,21.13
2023-03-18T04:54:04.146Z,21.12
2023-03-18T04:56:31.308Z,21.12
2023-03-18T04:58:57.612Z,21.10
2023-03-18T05:01:24.350Z,21.10
2023-03-18T05:03:50.949Z,21.06
2023-03-18T05:06:21.762Z,21.09
2023-03-18T05:08:48.504Z,21.07
2023-03-18T05:11:15.227Z,21.05
2023-03-18T05:13:41.618Z,21.04
2023-03-18T05:16:08.806Z,21.04
2023-03-18T05:18:35.619Z,21.02
2023-03-18T05:21:02.627Z,21.02
2023-03-18T05:23:29.411Z,21.02
2023-03-18T05:25:55.768Z,21.02
2023-03-18T05:28:22.363Z,21.00
2023-03-18T05:30:48.674Z,20.98
2023-03-18T05:33:15.002Z,20.98
2023-03-18T05:35:41.513Z,20.96
2023-03-18T05:38:07.905Z,20.96
2023-03-18T05:40:34.296Z,20.95
2023-03-18T05:43:00.614Z,20.95
2023-03-18T05:45:27.473Z,20.95
2023-03-18T05:47:53.815Z,20.95
2023-03-18T05:50:30.250Z,20.95
2023-03-18T05:52:56.584Z,20.96
2023-03-18T05:55:23.417Z,20.94
2023-03-18T05:57:49.727Z,20.93
2023-03-18T06:00:18.568Z,20.92
2023-03-18T06:02:44.906Z,20.96
2023-03-18T06:05:12.146Z,21.06
2023-03-18T06:07:38.473Z,21.16
2023-03-18T06:10:05.122Z,21.21
2023-03-18T06:12:31.441Z,21.24
2023-03-18T06:14:58.103Z,21.31
2023-03-18T06:17:24.421Z,21.39
2023-03-18T06:19:51.090Z,21.44
2023-03-18T06:22:17.509Z,21.45
2023-03-18T06:24:43.832Z,21.43
2023-03-18T06:27:10.185Z,21.43
2023-03-18T06:29:36.873Z,21.47
2023-03-18T06:32:03.409Z,21.48
2023-03-18T06:34:29.725Z,21.50
2023-03-18T06:36:56.861Z,21.53
2023-03-18T06:39:23.206Z,21.57
2023-03-18T06:41:49.523Z,21.65
2023-03-18T06:44:15.841Z,21.72
2023-03-18T06:46:44.000Z,21.76
2023-03-18T06:49:11.168Z,21.79
2023-03-18T06:51:37.496Z,21.81
2023-03-18T06:54:03.881Z,22.03
2023-03-18T06:56:30.601Z,22.27
2023-03-18T06:58:58.128Z,22.31
2023-03-18T07:01:24.508Z,22.28
2023-03-18T07:03:51.513Z,22.14
2023-03-18T07:06:18.721Z,22.22
2023-03-18T07:08:45.784Z,22.17
2023-03-18T07:11:12.325Z,22.13
2023-03-18T07:13:38.971Z,22.10
2023-03-18T07:16:05.424Z,22.08
2023-03-18T07:18:32.073Z,22.11
2023-03-18T07:20:58.755Z,22.15
2023-03-18T07:23:25.093Z,22.16
2023-03-18T07:25:51.508Z,22.17
2023-03-18T07:28:17.855Z,22.16
2023-03-18T07:30:44.954Z,22.16
2023-03-18T07:33:11.297Z,22.17
2023-03-18T07:35:40.862Z,22.14
2023-03-18T07:38:10.304Z,22.13
2023-03-18T07:40:37.613Z,22.13
2023-03-18T07:43:04.656Z,22.19
2023-03-18T07:45:31.465Z,22.31
2023-03-18T07:47:58.275Z,22.57
2023-03-18T07:50:24.626Z,22.90
2023-03-18T07:52:52.004Z,23.05
2023-03-18T07:55:18.408Z,23.03
2023-03-18T07:57:44.954Z,23.12
2023-03-18T08:00:12.466Z,23.17
2023-03-18T08:02:38.935Z,23.29
2023-03-18T08:05:06.967Z,23.40
2023-03-18T08:07:34.692Z,23.51
2023-03-18T08:10:01.647Z,23.61
2023-03-18T08:12:35.534Z,23.65
2023-03-18T08:15:11.617Z,23.75
2023-03-18T08:17:38.190Z,23.78
2023-03-18T08:20:05.171Z,23.83
2023-03-18T08:22:31.502Z,23.79
2023-03-18T08:24:58.211Z,23.71
2023-03-18T08:27:24.732Z,23.75
2023-03-18T08:29:51.032Z,23.76
2023-03-18T08:32:17.354Z,23.69
2023-03-18T08:34:43.743Z,23.61
2023-03-18T08:37:10.181Z,23.55
2023-03-18T08:39:36.488Z,23.50
2023-03-18T08:42:04.171Z,23.44
2023-03-18T08:44:31.002Z,23.40
2023-03-18T08:46:57.767Z,23.39
2023-03-18T08:49:24.694Z,23.31
2023-03-18T08:51:51.692Z,23.26
2023-03-18T08:54:18.152Z,23.23
2023-03-18T08:56:44.464Z,23.21
2023-03-18T08:59:10.821Z,23.19
2023-03-18T09:01:37.429Z,23.13
2023-03-18T09:04:03.798Z,23.11
2023-03-18T09:06:30.453Z,23.07
2023-03-18T09:08:57.487Z,23.02
2023-03-18T09:11:23.825Z,23.00
2023-03-18T09:13:50.192Z,22.97
2023-03-18T09:16:17.316Z,22.95
2023-03-18T09:18:45.259Z,22.89
2023-03-18T09:21:12.247Z,22.86
2023-03-18T09:23:38.569Z,22.83
2023-03-18T09:26:05.375Z,22.80
2023-03-18T09:28:32.075Z,22.79
2023-03-18T09:30:58.408Z,22.77
2023-03-18T09:33:25.507Z,22.74
2023-03-18T09:35:51.889Z,22.70
2023-03-18T09:38:19.526Z,22.71
2023-03-18T09:40:59.434Z,22.69
2023-03-18T09:43:35.889Z,22.64
2023-03-18T09:46:05.461Z,22.57
2023-03-18T09:48:47.289Z,22.56
2023-03-18T09:51:28.263Z,22.55
2023-03-18T09:54:13.516Z,22.56
2023-03-18T09:56:40.089Z,22.52
2023-03-18T09:59:12.873Z,22.53
2023-03-18T10:01:39.321Z,22.52
2023-03-18T10:04:14.174Z,22.52
2023-03-18T10:06:42.945Z,22.51
2023-03-18T10:09:36.076Z,22.52
2023-03-18T10:12:25.581Z,22.48
2023-03-18T10:14:51.944Z,22.49
2023-03-18T10:17:41.674Z,22.48
2023-03-18T10:20:17.354Z,22.44
2023-03-18T10:23:02.004Z,22.40
2023-03-18T10:25:34.873Z,22.39
2023-03-18T10:28:18.116Z,22.39
2023-03-18T10:30:50.760Z,22.40
2023-03-18T10:33:23.301Z,22.38
2023-03-18T10:36:08.628Z,22.37
2023-03-18T10:38:36.322Z,22.36
2023-03-18T10:41:02.652Z,22.36
2023-03-18T10:43:31.790Z,22.34
2023-03-18T10:46:02.385Z,22.35
2023-03-18T10:48:38.764Z,22.35
2023-03-18T10:51:24.574Z,22.33
2023-03-18T10:53:58.699Z,22.32
2023-03-18T10:56:25.210Z,22.31
2023-03-18T10:58:52.707Z,22.35
2023-03-18T11:01:21.181Z,22.36
2023-03-18T11:03:50.547Z,22.37
2023-03-18T11:06:25.241Z,22.38
2023-03-18T11:08:52.168Z,22.38
2023-03-18T11:11:28.593Z,22.38
2023-03-18T11:13:56.052Z,22.40
2023-03-18T11:16:30.532Z,22.47
2023-03-18T11:18:57.314Z,22.51
2023-03-18T11:21:24.168Z,22.55
2023-03-18T11:24:10.190Z,22.58
2023-03-18T11:26:43.994Z,22.60
2023-03-18T11:29:11.056Z,22.60
2023-03-18T11:31:51.190Z,22.62
2023-03-18T11:34:19.704Z,22.75
2023-03-18T11:37:04.978Z,22.80
2023-03-18T11:39:31.880Z,22.86
2023-03-18T11:41:59.297Z,22.95
2023-03-18T11:44:27.924Z,22.97
2023-03-18T11:46:55.544Z,23.01
2023-03-18T11:49:22.796Z,23.02
2023-03-18T11:52:04.394Z,22.98
2023-03-18T11:54:47.754Z,22.99
2023-03-18T11:57:20.279Z,23.03
2023-03-18T11:59:56.360Z,23.03
2023-03-18T12:02:42.898Z,23.04
2023-03-18T12:05:26.576Z,23.00
2023-03-18T12:08:00.745Z,22.97
2023-03-18T12:10:29.822Z,22.95
2023-03-18T12:13:05.154Z,22.95
2023-03-18T12:15:34.686Z,22.94
2023-03-18T12:18:36.625Z,22.92
2023-03-18T12:21:20.616Z,22.92
2023-03-18T12:23:51.145Z,22.90
2023-03-18T12:26:30.368Z,22.90
2023-03-18T12:29:09.549Z,22.91
2023-03-18T12:31:39.923Z,22.95
2023-03-18T12:34:10.962Z,22.98
2023-03-18T12:36:37.768Z,23.02
2023-03-18T12:39:06.814Z,23.04
2023-03-18T12:41:37.307Z,23.05
2023-03-18T12:44:07.793Z,23.07
2023-03-18T12:46:36.027Z,23.09
2023-03-18T12:49:22.291Z,23.10
2023-03-18T12:51:57.765Z,23.12
2023-03-18T12:54:25.951Z,23.12
2023-03-18T12:56:55.455Z,23.12
2023-03-18T12:59:27.591Z,23.14
2023-03-18T13:02:05.144Z,23.13
2023-03-18T13:04:31.921Z,23.10
2023-03-18T13:07:15.940Z,23.11
2023-03-18T13:09:43.682Z,23.11
2023-03-18T13:12:20.497Z,23.11
2023-03-18T13:15:08.200Z,23.12
2023-03-18T13:17:38.928Z,23.13
2023-03-18T13:20:16.344Z,23.16
2023-03-18T13:22:42.621Z,23.17
2023-03-18T13:25:28.967Z,23.18
2023-03-18T13:28:14.021Z,23.20
2023-03-18T13:30:48.627Z,23.19
2023-03-18T13:33:38.441Z,23.20
2023-03-18T13:36:23.474Z,23.20
2023-03-18T13:38:55.280Z,23.19
2023-03-18T13:41:51.214Z,23.19
2023-03-18T13:44:25.378Z,23.20
2023-03-18T13:46:57.179Z,23.19
2023-03-18T13:49:24.246Z,23.19
2023-03-18T13:51:51.921Z,23.18
2023-03-18T13:54:18.824Z,23.21
2023-03-18T13:56:50.662Z,23.20
2023-03-18T13:59:35.317Z,23.20
2023-03-18T14:02:21.028Z,23.17
2023-03-18T14:04:50.798Z,23.14
2023-03-18T14:07:23.533Z,23.13
2023-03-18T14:09:52.955Z,23.12
2023-03-18T14:12:20.562Z,23.10
2023-03-18T14:14:56.724Z,23.09
2023-03-18T14:17:25.765Z,23.10
2023-03-18T14:19:55.410Z,23.10
2023-03-18T14:22:25.434Z,23.10
2023-03-18T14:25:10.928Z,23.09
2023-03-18T14:27:47.377Z,23.08
2023-03-18T14:30:32.046Z,23.05
2023-03-18T14:32:58.361Z,23.05
2023-03-18T14:35:28.467Z,23.04
2023-03-18T14:37:57.674Z,23.01
2023-03-18T14:40:24.005Z,23.00
2023-03-18T14:42:56.651Z,22.98
2023-03-18T14:45:27.591Z,22.97
2023-03-18T14:47:54.514Z,22.93
2023-03-18T14:50:27.591Z,22.92
2023-03-18T14:52:55.672Z,22.91
2023-03-18T14:55:23.698Z,22.88
2023-03-18T14:57:50.878Z,22.87
2023-03-18T15:00:17.410Z,22.86
2023-03-18T15:02:44.080Z,22.85
2023-03-18T15:05:12.278Z,22.82
2023-03-18T15:07:39.452Z,22.81
2023-03-18T15:10:10.825Z,22.80
2023-03-18T15:12:37.392Z,22.79
2023-03-18T15:15:05.048Z,22.78
2023-03-18T15:17:31.377Z,22.77
2023-03-18T15:19:59.908Z,22.75
2023-03-18T15:22:28.345Z,22.73
2023-03-18T15:25:04.625Z,22.73
2023-03-18T15:27:31.802Z,22.70
2023-03-18T15:29:58.544Z,22.69
2023-03-18T15:32:26.384Z,22.69
2023-03-18T15:34:53.718Z,22.71
2023-03-18T15:37:26.149Z,22.71
2023-03-18T15:39:56.087Z,22.69
2023-03-18T15:42:22.404Z,22.69
2023-03-18T15:44:54.500Z,22.69
2023-03-18T15:47:23.373Z,22.67
2023-03-18T15:49:53.449Z,22.66
2023-03-18T15:52:20.970Z,22.66
2023-03-18T15:54:47.762Z,22.64
2023-03-18T15:57:28.311Z,22.64
2023-03-18T15:59:54.673Z,22.62
2023-03-18T16:02:22.501Z,22.68
2023-03-18T16:04:48.844Z,22.77
2023-03-18T16:07:18.951Z,22.86
2023-03-18T16:09:45.687Z,22.89
2023-03-18T16:12:19.238Z,22.88
2023-03-18T16:14:46.197Z,22.78
2023-03-18T16:17:12.681Z,22.78
2023-03-18T16:19:39.004Z,22.81
2023-03-18T16:22:05.889Z,22.89
2023-03-18T16:24:32.207Z,22.92
2023-03-18T16:26:58.665Z,22.96
2023-03-18T16:29:29.858Z,22.93
2023-03-18T16:31:56.204Z,22.90
2023-03-18T16:34:22.525Z,22.90
2023-03-18T16:36:50.566Z,22.89
2023-03-18T16:39:17.660Z,22.89
2023-03-18T16:41:44.450Z,22.90
2023-03-18T16:44:12.000Z,23.00
2023-03-18T16:46:45.345Z,23.07
2023-03-18T16:49:16.224Z,23.17
2023-03-18T16:51:42.588Z,23.21
2023-03-18T16:54:29.403Z,23.25
2023-03-18T16:56:57.369Z,23.28
2023-03-18T17:02:13.039Z,23.32
2023-03-18T17:04:40.613Z,23.30
2023-03-18T17:07:06.917Z,23.32
2023-03-18T17:09:33.205Z,23.33
2023-03-18T17:12:03.801Z,23.32
2023-03-18T17:14:37.718Z,23.30
2023-03-18T17:17:08.179Z,23.32
2023-03-18T17:19:35.410Z,23.41
2023-03-18T17:22:01.982Z,23.47
2023-03-18T17:24:28.263Z,23.48
2023-03-18T17:26:54.998Z,23.50
2023-03-18T17:29:25.121Z,23.53
2023-03-18T17:31:54.391Z,23.63
2023-03-18T17:34:20.673Z,23.65
2023-03-18T17:36:47.034Z,23.66
2023-03-18T17:39:13.552Z,23.65
2023-03-18T17:41:39.908Z,23.62
2023-03-18T17:44:24.903Z,23.61
2023-03-18T17:46:52.131Z,23.61
2023-03-18T17:49:20.684Z,23.57
2023-03-18T17:51:48.775Z,23.54
2023-03-18T17:54:21.918Z,23.60
2023-03-18T17:56:48.244Z,23.66
2023-03-18T17:59:15.375Z,23.81
2023-03-18T18:01:42.368Z,23.78
2023-03-18T18:04:09.334Z,23.88
2023-03-18T18:06:36.087Z,23.95
2023-03-18T18:09:02.579Z,23.92
2023-03-18T18:11:29.330Z,23.93
2023-03-18T18:13:59.265Z,23.91
2023-03-18T18:16:26.302Z,23.97
2023-03-18T18:18:52.639Z,23.94
2023-03-18T18:21:19.881Z,23.98
2023-03-18T18:23:46.464Z,23.97
2023-03-18T18:26:13.652Z,23.94
2023-03-18T18:28:40.989Z,23.87
2023-03-18T18:31:09.194Z,23.83
2023-03-18T18:33:35.730Z,23.84
2023-03-18T18:36:02.066Z,23.83
2023-03-18T18:38:28.550Z,23.84
2023-03-18T18:40:55.755Z,23.86
2023-03-18T18:43:22.389Z,23.82
2023-03-18T18:45:48.900Z,23.80
2023-03-18T18:48:16.116Z,23.81
2023-03-18T18:50:43.609Z,23.81
2023-03-18T18:53:17.462Z,23.80
2023-03-18T18:55:43.968Z,23.79
2023-03-18T18:58:16.057Z,23.76
2023-03-18T19:00:42.397Z,23.75
2023-03-18T19:03:10.896Z,23.72
2023-03-18T19:05:37.917Z,23.69
2023-03-18T19:08:04.699Z,23.77
2023-03-18T19:10:31.150Z,23.87
2023-03-18T19:12:57.464Z,23.97
2023-03-18T19:15:24.174Z,24.04
2023-03-18T19:17:50.506Z,24.07
2023-03-18T19:20:27.143Z,24.05
2023-03-18T19:22:53.656Z,24.04
2023-03-18T19:25:19.980Z,23.99
2023-03-18T19:27:46.583Z,24.01
2023-03-18T19:30:19.496Z,23.97
2023-03-18T19:32:46.032Z,23.98
2023-03-18T19:35:12.885Z,24.01
2023-03-18T19:37:39.596Z,23.98
2023-03-18T19:40:14.524Z,23.96
2023-03-18T19:42:41.035Z,23.96
2023-03-18T19:45:08.740Z,23.93
2023-03-18T19:47:35.072Z,23.93
2023-03-18T19:50:01.411Z,23.92
2023-03-18T19:52:27.935Z,23.93
2023-03-18T19:54:54.599Z,23.89
2023-03-18T19:57:29.786Z,23.95
2023-03-18T19:59:57.195Z,23.93
2023-03-18T20:02:27.364Z,23.90
2023-03-18T20:04:54.593Z,23.89
2023-03-18T20:07:21.673Z,23.87
2023-03-18T20:09:48.051Z,23.86
2023-03-18T20:12:26.553Z,23.84
2023-03-18T20:14:53.097Z,23.81
2023-03-18T20:17:33.507Z,23.79
2023-03-18T20:19:59.842Z,23.83
2023-03-18T20:22:28.092Z,23.91
2023-03-18T20:24:54.482Z,24.04
2023-03-18T20:27:21.032Z,24.03
2023-03-18T20:29:47.364Z,24.11
2023-03-18T20:32:13.764Z,24.11
2023-03-18T20:34:41.510Z,24.10
2023-03-18T20:37:13.010Z,24.08
2023-03-18T20:39:39.328Z,24.04
2023-03-18T20:42:06.026Z,24.10
2023-03-18T20:44:32.377Z,24.04
2023-03-18T20:46:58.742Z,24.00
2023-03-18T20:49:25.305Z,23.99
2023-03-18T20:51:51.659Z,24.01
2023-03-18T20:54:19.007Z,23.97
2023-03-18T20:56:45.889Z,23.98
2023-03-18T20:59:12.321Z,24.02
2023-03-18T21:01:38.714Z,24.01
2023-03-18T21:04:05.635Z,24.00
2023-03-18T21:06:32.064Z,23.97
2023-03-18T21:08:58.384Z,23.93
2023-03-18T21:11:29.669Z,23.90
2023-03-18T21:13:56.280Z,23.87
2023-03-18T21:16:23.425Z,23.86
2023-03-18T21:18:49.954Z,23.85
2023-03-18T21:21:20.754Z,23.82
2023-03-18T21:23:47.113Z,23.83
2023-03-18T21:26:13.435Z,23.87
2023-03-18T21:28:39.799Z,23.86
2023-03-18T21:31:06.226Z,23.83
2023-03-18T21:33:33.145Z,23.83
2023-03-18T21:35:59.535Z,23.82
2023-03-18T21:38:27.021Z,23.79
2023-03-18T21:40:53.526Z,23.74
2023-03-18T21:43:32.529Z,23.75
2023-03-18T21:45:59.177Z,23.73
2023-03-18T21:48:25.745Z,23.71
2023-03-18T21:50:52.131Z,23.70
2023-03-18T21:53:19.478Z,23.64
2023-03-18T21:55:46.005Z,23.56
2023-03-18T21:58:16.657Z,23.56
2023-03-18T22:00:43.317Z,23.55
2023-03-18T22:03:13.558Z,23.56
2023-03-18T22:05:39.868Z,23.64
2023-03-18T22:08:06.209Z,23.56
2023-03-18T22:10:32.602Z,23.50
2023-03-18T22:12:58.898Z,23.50
2023-03-18T22:15:25.093Z,23.47
2023-03-18T22:17:51.668Z,23.47
2023-03-18T22:20:17.942Z,23.46
2023-03-18T22:22:44.248Z,23.45
2023-03-18T22:25:16.384Z,23.42
2023-03-18T22:27:42.680Z,23.41
2023-03-18T22:30:09.245Z,23.41
2023-03-18T22:32:45.247Z,23.38
2023-03-18T22:35:13.849Z,23.38
2023-03-18T22:37:40.328Z,23.36
2023-03-18T22:40:06.905Z,23.44
2023-03-18T22:42:33.184Z,23.42
2023-03-18T22:44:59.471Z,23.40
2023-03-18T22:47:25.956Z,23.41
2023-03-18T22:49:52.357Z,23.39
2023-03-18T22:52:22.658Z,23.38
2023-03-18T22:54:49.472Z,23.36
2023-03-18T22:57:17.175Z,23.31
2023-03-18T22:59:43.491Z,23.30
2023-03-18T23:02:13.541Z,23.29
2023-03-18T23:04:39.888Z,23.25
2023-03-18T23:07:06.319Z,23.23
2023-03-18T23:09:34.719Z,23.21
2023-03-18T23:12:03.703Z,23.19
2023-03-18T23:14:30.063Z,23.16
2023-03-18T23:16:56.549Z,23.15
2023-03-18T23:19:22.877Z,23.13
2023-03-18T23:21:49.229Z,23.11
2023-03-18T23:24:15.668Z,23.10
2023-03-18T23:26:41.973Z,23.09
2023-03-18T23:29:08.949Z,23.06
2023-03-18T23:31:35.528Z,23.05
2023-03-18T23:34:01.867Z,23.00
2023-03-18T23:36:28.621Z,23.04
2023-03-18T23:38:54.938Z,22.99
2023-03-18T23:41:21.252Z,22.99
2023-03-18T23:43:47.731Z,22.99
2023-03-18T23:46:14.073Z,22.98
2023-03-18T23:48:40.552Z,22.97
2023-03-18T23:51:06.860Z,22.93
2023-03-18T23:53:33.189Z,22.92
2023-03-18T23:55:59.505Z,22.89
2023-03-18T23:58:25.958Z,22.88
